createdAt,value
2022-10-18T00:02:15.616Z,71.55
2022-10-18T00:04:42.348Z,71.45
2022-10-18T00:07:08.838Z,71.40
2022-10-18T00:09:35.317Z,71.42
2022-10-18T00:12:02.077Z,71.33
2022-10-18T00:14:28.622Z,71.40
2022-10-18T00:16:55.135Z,71.65
2022-10-18T00:19:24.759Z,71.37
2022-10-18T00:21:53.671Z,71.41
2022-10-18T00:24:20.222Z,71.42
2022-10-18T00:26:46.741Z,71.65
2022-10-18T00:29:15.111Z,71.85
2022-10-18T00:31:43.617Z,71.53
2022-10-18T00:34:13.481Z,71.42
2022-10-18T00:36:40.345Z,71.25
2022-10-18T00:39:08.466Z,71.59
2022-10-18T00:41:38.078Z,71.57
2022-10-18T00:44:12.742Z,71.69
2022-10-18T00:46:42.053Z,71.57
2022-10-18T00:49:15.689Z,71.56
2022-10-18T00:51:46.626Z,71.83
2022-10-18T00:54:15.060Z,72.26
2022-10-18T00:56:41.921Z,72.20
2022-10-18T00:59:08.515Z,72.44
2022-10-18T01:01:35.059Z,72.17
2022-10-18T01:04:01.557Z,72.29
2022-10-18T01:06:29.405Z,72.25
2022-10-18T01:09:26.898Z,72.21
2022-10-18T01:12:35.297Z,72.55
2022-10-18T01:15:15.741Z,72.17
2022-10-18T01:18:19.169Z,72.21
2022-10-18T01:21:24.155Z,72.34
2022-10-18T01:24:24.497Z,72.52
2022-10-18T01:27:29.460Z,72.32
2022-10-18T01:30:20.639Z,72.24
2022-10-18T01:32:58.963Z,72.42
2022-10-18T01:35:31.901Z,72.72
2022-10-18T01:38:03.970Z,72.48
2022-10-18T01:40:32.025Z,72.37
2022-10-18T01:42:59.304Z,72.72
2022-10-18T01:45:26.089Z,72.92
2022-10-18T01:47:54.309Z,72.83
2022-10-18T01:50:32.115Z,73.23
2022-10-18T01:52:59.255Z,72.61
2022-10-18T01:55:42.090Z,72.76
2022-10-18T01:58:19.770Z,72.92
2022-10-18T02:00:50.711Z,72.99
2022-10-18T02:03:25.629Z,73.01
2022-10-18T02:05:59.785Z,73.02
2022-10-18T02:08:42.238Z,73.30
2022-10-18T02:11:12.427Z,73.44
2022-10-18T02:13:45.021Z,73.25
2022-10-18T02:16:16.668Z,73.28
2022-10-18T02:18:55.972Z,73.20
2022-10-18T02:21:23.263Z,73.36
2022-10-18T02:23:50.408Z,73.53
2022-10-18T02:26:17.221Z,73.65
2022-10-18T02:28:44.136Z,73.59
2022-10-18T02:31:16.372Z,73.44
2022-10-18T02:34:04.828Z,73.48
2022-10-18T02:36:59.058Z,73.28
2022-10-18T02:39:30.262Z,73.83
2022-10-18T02:41:57.935Z,73.68
2022-10-18T02:44:24.539Z,73.69
2022-10-18T02:46:51.504Z,73.85
2022-10-18T02:49:17.993Z,74.18
2022-10-18T02:51:44.468Z,74.17
2022-10-18T02:54:11.127Z,74.09
2022-10-18T02:56:37.586Z,74.02
2022-10-18T02:59:05.639Z,74.44
2022-10-18T03:01:33.262Z,74.21
2022-10-18T03:04:00.002Z,74.35
2022-10-18T03:06:26.445Z,74.49
2022-10-18T03:08:52.988Z,74.33
2022-10-18T03:11:19.721Z,74.97
2022-10-18T03:13:46.210Z,74.53
2022-10-18T03:16:13.718Z,74.47
2022-10-18T03:18:40.172Z,74.85
2022-10-18T03:21:07.936Z,74.71
2022-10-18T03:23:34.783Z,74.36
2022-10-18T03:26:01.670Z,74.49
2022-10-18T03:28:28.424Z,75.00
2022-10-18T03:31:03.997Z,74.72
2022-10-18T03:33:31.968Z,74.79
2022-10-18T03:35:58.502Z,74.63
2022-10-18T03:38:25.059Z,74.80
2022-10-18T03:40:51.527Z,75.04
2022-10-18T03:43:18.101Z,75.05
2022-10-18T03:45:44.581Z,74.66
2022-10-18T03:48:11.069Z,74.89
2022-10-18T03:50:37.516Z,74.78
2022-10-18T03:53:04.246Z,74.82
2022-10-18T03:55:30.731Z,74.62
2022-10-18T03:57:58.182Z,75.13
2022-10-18T04:00:24.770Z,75.04
2022-10-18T04:02:54.925Z,74.89
2022-10-18T04:05:28.235Z,74.67
2022-10-18T04:07:54.968Z,74.58
2022-10-18T04:10:21.802Z,74.66
2022-10-18T04:12:48.343Z,74.69
2022-10-18T04:15:15.403Z,74.60
2022-10-18T04:17:42.043Z,74.57
2022-10-18T04:20:08.949Z,74.88
2022-10-18T04:22:35.446Z,75.05
2022-10-18T04:25:01.943Z,75.13
2022-10-18T04:27:28.475Z,75.01
2022-10-18T04:29:54.994Z,74.88
2022-10-18T04:32:21.474Z,74.90
2022-10-18T04:34:47.947Z,74.54
2022-10-18T04:37:14.416Z,74.93
2022-10-18T04:39:40.861Z,74.87
2022-10-18T04:42:07.352Z,74.71
2022-10-18T04:44:34.473Z,75.06
2022-10-18T04:47:00.946Z,74.84
2022-10-18T04:49:27.433Z,74.85
2022-10-18T04:51:53.894Z,74.85
2022-10-18T04:54:21.849Z,74.74
2022-10-18T04:56:50.417Z,74.97
2022-10-18T04:59:16.923Z,74.89
2022-10-18T05:01:43.480Z,75.09
2022-10-18T05:04:10.064Z,74.88
2022-10-18T05:06:36.631Z,75.12
2022-10-18T05:09:03.652Z,74.75
2022-10-18T05:11:30.229Z,75.04
2022-10-18T05:13:56.817Z,74.82
2022-10-18T05:16:23.476Z,74.99
2022-10-18T05:18:50.201Z,74.85
2022-10-18T05:21:16.873Z,75.10
2022-10-18T05:23:43.358Z,74.95
2022-10-18T05:26:09.853Z,74.96
2022-10-18T05:28:40.477Z,75.16
2022-10-18T05:31:09.274Z,75.03
2022-10-18T05:33:36.019Z,75.06
2022-10-18T05:36:02.600Z,75.13
2022-10-18T05:38:31.067Z,75.16
2022-10-18T05:40:58.550Z,75.35
2022-10-18T05:43:28.824Z,75.17
2022-10-18T05:45:55.741Z,75.27
2022-10-18T05:48:22.410Z,75.51
2022-10-18T05:50:48.911Z,75.57
2022-10-18T05:53:35.185Z,75.54
2022-10-18T05:56:02.936Z,75.83
2022-10-18T05:58:29.569Z,75.86
2022-10-18T06:00:59.915Z,76.14
2022-10-18T06:03:27.843Z,76.15
2022-10-18T06:06:00.273Z,76.44
2022-10-18T06:08:26.896Z,76.54
2022-10-18T06:10:53.491Z,76.68
2022-10-18T06:13:20.041Z,76.63
2022-10-18T06:15:46.630Z,76.54
2022-10-18T06:18:13.172Z,76.32
2022-10-18T06:20:39.681Z,76.66
2022-10-18T06:23:06.650Z,76.65
2022-10-18T06:25:33.176Z,76.30
2022-10-18T06:27:59.643Z,76.45
2022-10-18T06:30:26.130Z,76.91
2022-10-18T06:32:52.833Z,76.50
2022-10-18T06:35:19.278Z,76.53
2022-10-18T06:37:45.736Z,76.46
2022-10-18T06:40:12.426Z,76.36
2022-10-18T06:42:39.164Z,76.31
2022-10-18T06:45:06.416Z,76.21
2022-10-18T06:47:32.915Z,76.15
2022-10-18T06:49:59.893Z,76.10
2022-10-18T06:52:26.489Z,76.04
2022-10-18T06:54:53.880Z,76.00
2022-10-18T06:57:21.323Z,75.99
2022-10-18T06:59:47.760Z,76.08
2022-10-18T07:02:16.163Z,76.12
2022-10-18T07:04:43.543Z,76.42
2022-10-18T07:07:10.041Z,76.00
2022-10-18T07:09:36.609Z,75.84
2022-10-18T07:12:03.338Z,75.91
2022-10-18T07:14:29.861Z,76.01
2022-10-18T07:16:59.422Z,76.05
2022-10-18T07:19:25.955Z,76.37
2022-10-18T07:21:52.460Z,75.98
2022-10-18T07:24:18.994Z,76.15
2022-10-18T07:26:45.530Z,76.19
2022-10-18T07:29:13.133Z,76.16
2022-10-18T07:31:40.904Z,76.08
2022-10-18T07:34:10.547Z,76.10
2022-10-18T07:36:37.178Z,76.22
2022-10-18T07:39:04.155Z,76.32
2022-10-18T07:41:33.338Z,76.70
2022-10-18T07:44:01.047Z,76.64
2022-10-18T07:46:27.854Z,76.80
2022-10-18T07:48:54.928Z,76.39
2022-10-18T07:51:21.845Z,75.99
2022-10-18T07:53:48.533Z,75.48
2022-10-18T07:56:19.179Z,75.55
2022-10-18T07:58:47.450Z,74.58
2022-10-18T08:01:15.384Z,74.34
2022-10-18T08:03:42.520Z,74.18
2022-10-18T08:06:11.047Z,74.23
2022-10-18T08:08:39.462Z,73.89
2022-10-18T08:11:09.344Z,73.87
2022-10-18T08:13:36.348Z,73.84
2022-10-18T08:16:05.403Z,73.96
2022-10-18T08:18:32.332Z,73.73
2022-10-18T08:21:03.416Z,73.84
2022-10-18T08:23:30.440Z,75.09
2022-10-18T08:25:57.282Z,75.32
2022-10-18T08:28:23.942Z,75.76
2022-10-18T08:30:50.656Z,75.98
2022-10-18T08:33:17.122Z,76.41
2022-10-18T08:35:43.669Z,77.23
2022-10-18T08:38:16.459Z,77.59
2022-10-18T08:40:44.904Z,77.87
2022-10-18T08:43:29.106Z,78.20
2022-10-18T08:45:56.038Z,78.55
2022-10-18T08:48:45.877Z,78.94
2022-10-18T08:51:22.394Z,78.93
2022-10-18T08:53:56.308Z,79.16
2022-10-18T08:56:24.904Z,79.50
2022-10-18T08:58:51.452Z,80.72
2022-10-18T09:01:20.621Z,81.90
2022-10-18T09:04:51.121Z,83.39
2022-10-18T09:07:41.202Z,84.62
2022-10-18T09:10:07.763Z,85.40
2022-10-18T09:12:54.266Z,86.18
2022-10-18T09:15:38.983Z,87.20
2022-10-18T09:18:45.529Z,87.90
2022-10-18T09:21:19.202Z,88.52
2022-10-18T09:23:54.119Z,88.78
2022-10-18T09:26:22.557Z,89.39
2022-10-18T09:28:51.351Z,89.58
2022-10-18T09:32:16.831Z,90.46
2022-10-18T09:34:53.178Z,90.47
2022-10-18T09:37:22.554Z,90.43
2022-10-18T09:39:51.326Z,90.63
2022-10-18T09:42:28.700Z,90.80
2022-10-18T09:45:39.861Z,90.88
2022-10-18T09:48:31.374Z,91.18
2022-10-18T09:51:23.605Z,91.68
2022-10-18T09:54:13.150Z,91.79
2022-10-18T09:56:44.716Z,91.45
2022-10-18T09:59:39.087Z,92.26
2022-10-18T10:02:06.919Z,92.55
2022-10-18T10:04:33.532Z,92.43
2022-10-18T10:07:01.898Z,92.33
2022-10-18T10:09:50.217Z,92.62
2022-10-18T10:12:30.067Z,92.68
2022-10-18T10:15:08.552Z,92.73
2022-10-18T10:17:35.407Z,93.00
2022-10-18T10:20:30.740Z,92.99
2022-10-18T10:23:07.295Z,93.28
2022-10-18T10:25:38.257Z,93.04
2022-10-18T10:28:13.284Z,93.08
2022-10-18T10:30:40.138Z,92.53
2022-10-18T10:33:15.630Z,92.31
2022-10-18T10:35:53.654Z,92.68
2022-10-18T10:38:26.003Z,92.13
2022-10-18T10:40:52.778Z,92.01
2022-10-18T10:43:42.033Z,91.71
2022-10-18T10:46:19.072Z,91.62
2022-10-18T10:48:48.719Z,91.44
2022-10-18T10:51:27.233Z,90.80
2022-10-18T10:54:36.161Z,90.29
2022-10-18T10:57:12.587Z,90.65
2022-10-18T10:59:45.485Z,90.39
2022-10-18T11:02:21.429Z,89.74
2022-10-18T11:04:50.437Z,89.46
2022-10-18T11:07:16.880Z,89.10
2022-10-18T11:10:04.019Z,89.17
2022-10-18T11:12:38.542Z,88.91
2022-10-18T11:15:25.415Z,88.93
2022-10-18T11:18:10.514Z,88.28
2022-10-18T11:20:41.810Z,88.15
2022-10-18T11:23:12.337Z,87.66
2022-10-18T11:25:58.611Z,87.07
2022-10-18T11:28:37.057Z,86.50
2022-10-18T11:31:23.450Z,85.89
2022-10-18T11:34:21.580Z,85.62
2022-10-18T11:37:29.067Z,85.46
2022-10-18T11:40:05.977Z,84.83
2022-10-18T11:42:43.927Z,84.94
2022-10-18T11:45:40.993Z,84.01
2022-10-18T11:48:39.914Z,83.91
2022-10-18T11:51:33.951Z,83.22
2022-10-18T11:57:37.375Z,81.54
2022-10-18T12:00:14.143Z,80.26
2022-10-18T12:03:16.046Z,79.36
2022-10-18T12:05:45.869Z,80.00
2022-10-18T12:08:29.255Z,78.39
2022-10-18T12:11:06.023Z,78.56
2022-10-18T12:14:03.098Z,78.22
2022-10-18T12:16:50.484Z,77.83
2022-10-18T12:19:27.222Z,77.58
2022-10-18T12:21:57.579Z,77.58
2022-10-18T12:24:28.732Z,76.60
2022-10-18T12:27:00.032Z,76.36
2022-10-18T12:29:44.281Z,76.29
2022-10-18T12:32:24.669Z,76.78
2022-10-18T12:35:06.693Z,76.29
2022-10-18T12:37:51.130Z,76.48
2022-10-18T12:40:24.488Z,76.24
2022-10-18T12:42:53.285Z,77.44
2022-10-18T12:45:23.638Z,77.41
2022-10-18T12:47:50.345Z,77.56
2022-10-18T12:50:36.686Z,77.24
2022-10-18T12:53:07.649Z,77.90
2022-10-18T12:55:39.492Z,77.77
2022-10-18T12:58:25.118Z,77.25
2022-10-18T13:00:53.739Z,77.22
2022-10-18T13:03:26.125Z,77.63
2022-10-18T13:05:54.325Z,77.05
2022-10-18T13:08:38.376Z,76.93
2022-10-18T13:11:10.700Z,77.37
2022-10-18T13:13:58.485Z,76.17
2022-10-18T13:16:38.308Z,76.27
2022-10-18T13:19:51.361Z,75.78
2022-10-18T13:22:38.545Z,75.48
2022-10-18T13:25:27.885Z,75.52
2022-10-18T13:28:18.646Z,75.08
2022-10-18T13:31:09.782Z,74.36
2022-10-18T13:33:41.807Z,74.05
2022-10-18T13:36:22.985Z,73.58
2022-10-18T13:38:57.647Z,73.60
2022-10-18T13:41:34.339Z,73.40
2022-10-18T13:44:02.042Z,73.28
2022-10-18T13:46:34.505Z,72.66
2022-10-18T13:49:20.146Z,72.31
2022-10-18T13:52:14.803Z,71.86
2022-10-18T13:54:51.058Z,71.92
2022-10-18T13:57:48.340Z,71.93
2022-10-18T14:00:52.143Z,71.36
2022-10-18T14:06:33.575Z,70.71
2022-10-18T14:09:25.423Z,70.84
2022-10-18T14:12:08.583Z,71.56
2022-10-18T14:14:43.440Z,71.81
2022-10-18T14:17:49.269Z,71.84
2022-10-18T14:20:18.846Z,71.54
2022-10-18T14:23:03.372Z,71.49
2022-10-18T14:25:32.970Z,71.38
2022-10-18T14:28:21.728Z,70.82
2022-10-18T14:31:02.926Z,70.47
2022-10-18T14:33:42.957Z,70.29
2022-10-18T14:36:15.612Z,70.58
2022-10-18T14:38:58.789Z,70.93
2022-10-18T14:41:28.153Z,71.06
2022-10-18T14:44:14.812Z,71.74
2022-10-18T14:46:49.817Z,71.33
2022-10-18T14:49:17.201Z,71.75
2022-10-18T14:51:46.574Z,70.59
2022-10-18T14:54:32.709Z,71.06
2022-10-18T14:57:00.680Z,71.52
2022-10-18T14:59:30.571Z,71.62
2022-10-18T15:02:00.034Z,71.17
2022-10-18T15:04:32.915Z,71.47
2022-10-18T15:07:03.075Z,71.38
2022-10-18T15:09:31.765Z,71.01
2022-10-18T15:12:00.618Z,71.28
2022-10-18T15:14:28.851Z,70.75
2022-10-18T15:17:04.523Z,70.93
2022-10-18T15:19:36.735Z,70.50
2022-10-18T15:22:31.308Z,70.04
2022-10-18T15:25:08.669Z,71.08
2022-10-18T15:27:38.175Z,69.52
2022-10-18T15:30:25.714Z,63.98
2022-10-18T15:32:55.001Z,66.91
2022-10-18T15:35:33.096Z,69.01
2022-10-18T15:38:12.800Z,67.65
2022-10-18T15:40:40.524Z,67.53
2022-10-18T15:43:26.951Z,66.94
2022-10-18T15:46:06.803Z,66.54
2022-10-18T15:48:40.831Z,66.90
2022-10-18T15:51:19.273Z,66.50
2022-10-18T15:53:55.054Z,66.46
2022-10-18T15:56:31.678Z,66.25
2022-10-18T15:59:00.835Z,65.83
2022-10-18T16:01:42.836Z,65.77
2022-10-18T16:04:33.006Z,65.41
2022-10-18T16:07:00.512Z,64.82
2022-10-18T16:09:28.964Z,65.27
2022-10-18T16:11:57.225Z,64.87
2022-10-18T16:14:25.288Z,65.23
2022-10-18T16:16:55.044Z,64.94
2022-10-18T16:19:22.858Z,65.09
2022-10-18T16:21:51.144Z,65.17
2022-10-18T16:24:18.554Z,64.95
2022-10-18T16:26:45.191Z,65.27
2022-10-18T16:29:21.871Z,64.95
2022-10-18T16:31:49.753Z,65.13
2022-10-18T16:34:16.223Z,65.26
2022-10-18T16:36:42.858Z,64.86
2022-10-18T16:39:15.948Z,65.17
2022-10-18T16:41:42.789Z,65.19
2022-10-18T16:44:09.477Z,65.97
2022-10-18T16:46:36.680Z,65.63
2022-10-18T16:49:04.053Z,65.72
2022-10-18T16:51:31.195Z,65.93
2022-10-18T16:53:57.814Z,66.23
2022-10-18T16:56:30.641Z,66.30
2022-10-18T16:58:58.172Z,66.06
2022-10-18T17:01:25.255Z,66.21
2022-10-18T17:03:52.510Z,66.17
2022-10-18T17:06:22.594Z,66.50
2022-10-18T17:08:50.165Z,66.43
2022-10-18T17:11:17.699Z,66.36
2022-10-18T17:13:44.738Z,66.65
2022-10-18T17:19:02.921Z,66.77
2022-10-18T17:21:30.762Z,66.92
2022-10-18T17:24:00.508Z,66.72
2022-10-18T17:26:29.613Z,67.14
2022-10-18T17:29:00.073Z,67.29
2022-10-18T17:31:27.420Z,67.51
2022-10-18T17:33:55.375Z,67.57
2022-10-18T17:36:22.436Z,67.73
2022-10-18T17:38:53.438Z,67.78
2022-10-18T17:41:19.987Z,68.10
2022-10-18T17:43:48.129Z,68.12
2022-10-18T17:46:16.112Z,67.95
2022-10-18T17:48:42.995Z,67.94
2022-10-18T17:51:17.456Z,68.48
2022-10-18T17:53:44.349Z,67.94
2022-10-18T17:56:12.073Z,67.97
2022-10-18T17:58:39.339Z,68.04
2022-10-18T18:01:24.064Z,68.57
2022-10-18T18:03:55.762Z,68.53
2022-10-18T18:06:31.352Z,68.55
2022-10-18T18:09:00.156Z,68.77
2022-10-18T18:11:27.097Z,68.48
2022-10-18T18:13:55.838Z,68.35
2022-10-18T18:16:25.226Z,68.89
2022-10-18T18:18:53.768Z,68.67
2022-10-18T18:21:21.190Z,68.61
2022-10-18T18:23:49.141Z,68.69
2022-10-18T18:26:16.138Z,68.52
2022-10-18T18:28:43.056Z,68.45
2022-10-18T18:31:12.228Z,68.62
2022-10-18T18:33:38.765Z,68.74
2022-10-18T18:36:06.735Z,68.41
2022-10-18T18:38:35.419Z,68.46
2022-10-18T18:41:23.145Z,68.63
2022-10-18T18:43:58.507Z,68.61
2022-10-18T18:46:27.101Z,68.36
2022-10-18T18:48:54.050Z,68.49
2022-10-18T18:51:21.832Z,68.41
2022-10-18T18:53:48.648Z,68.71
2022-10-18T18:58:52.774Z,68.60
2022-10-18T19:01:22.428Z,68.55
2022-10-18T19:03:51.455Z,68.68
2022-10-18T19:06:23.858Z,68.49
2022-10-18T19:08:54.100Z,68.52
2022-10-18T19:11:22.544Z,68.53
2022-10-18T19:13:50.279Z,68.46
2022-10-18T19:16:20.078Z,68.45
2022-10-18T19:18:54.043Z,68.36
2022-10-18T19:21:21.486Z,68.32
2022-10-18T19:23:50.892Z,68.53
2022-10-18T19:26:28.666Z,68.54
2022-10-18T19:28:55.277Z,68.56
2022-10-18T19:31:22.792Z,68.82
2022-10-18T19:33:59.426Z,68.89
2022-10-18T19:36:26.749Z,68.71
2022-10-18T19:38:53.335Z,68.85
2022-10-18T19:41:19.830Z,68.79
2022-10-18T19:43:46.416Z,68.70
2022-10-18T19:46:13.066Z,68.76
2022-10-18T19:48:39.587Z,68.70
2022-10-18T19:51:09.345Z,69.08
2022-10-18T19:53:36.564Z,69.34
2022-10-18T19:56:05.614Z,69.69
2022-10-18T19:58:32.803Z,69.06
2022-10-18T20:01:00.308Z,69.33
2022-10-18T20:03:30.341Z,69.29
2022-10-18T20:05:59.229Z,69.05
2022-10-18T20:08:27.517Z,69.14
2022-10-18T20:10:54.713Z,69.04
2022-10-18T20:13:22.130Z,69.01
2022-10-18T20:15:50.521Z,68.85
2022-10-18T20:18:18.897Z,69.12
2022-10-18T20:20:48.197Z,69.13
2022-10-18T20:23:16.431Z,69.34
2022-10-18T20:25:43.438Z,69.08
2022-10-18T20:28:09.923Z,69.45
2022-10-18T20:30:36.609Z,69.12
2022-10-18T20:33:04.897Z,69.17
2022-10-18T20:35:32.191Z,69.44
2022-10-18T20:37:58.759Z,69.38
2022-10-18T20:40:25.334Z,69.04
2022-10-18T20:42:52.564Z,69.15
2022-10-18T20:45:19.225Z,69.54
2022-10-18T20:47:45.742Z,69.38
2022-10-18T20:50:12.302Z,69.29
2022-10-18T20:52:38.922Z,69.31
2022-10-18T20:55:05.862Z,69.81
2022-10-18T20:57:35.676Z,69.46
2022-10-18T21:00:03.919Z,69.69
2022-10-18T21:02:30.493Z,69.41
2022-10-18T21:04:56.938Z,69.37
2022-10-18T21:07:23.604Z,69.43
2022-10-18T21:09:50.196Z,69.31
2022-10-18T21:12:16.653Z,69.47
2022-10-18T21:14:43.217Z,69.15
2022-10-18T21:17:09.779Z,69.24
2022-10-18T21:19:36.304Z,69.55
2022-10-18T21:22:02.820Z,69.40
2022-10-18T21:24:30.294Z,69.38
2022-10-18T21:26:56.893Z,69.59
2022-10-18T21:29:27.012Z,69.44
2022-10-18T21:31:55.618Z,69.59
2022-10-18T21:34:22.283Z,69.34
2022-10-18T21:36:48.955Z,69.26
2022-10-18T21:39:18.462Z,69.52
2022-10-18T21:41:45.578Z,69.14
2022-10-18T21:44:12.372Z,69.37
2022-10-18T21:46:40.125Z,69.50
2022-10-18T21:49:07.781Z,69.66
2022-10-18T21:51:34.728Z,69.66
2022-10-18T21:54:01.546Z,69.58
2022-10-18T21:56:30.266Z,69.52
2022-10-18T21:58:57.985Z,69.70
2022-10-18T22:01:28.066Z,69.82
2022-10-18T22:03:56.457Z,69.83
2022-10-18T22:06:24.020Z,69.66
2022-10-18T22:08:58.503Z,70.34
2022-10-18T22:11:28.002Z,70.44
2022-10-18T22:13:54.955Z,70.99
2022-10-18T22:16:22.412Z,71.18
2022-10-18T22:18:49.685Z,70.93
2022-10-18T22:21:17.946Z,71.22
2022-10-18T22:23:47.487Z,71.55
2022-10-18T22:26:19.675Z,71.47
2022-10-18T22:28:47.448Z,71.81
2022-10-18T22:31:19.715Z,71.62
2022-10-18T22:33:47.061Z,72.00
2022-10-18T22:36:13.746Z,72.15
2022-10-18T22:38:40.396Z,71.81
2022-10-18T22:41:09.533Z,71.88
2022-10-18T22:43:36.814Z,72.14
2022-10-18T22:46:05.716Z,72.08
2022-10-18T22:48:33.207Z,72.16
2022-10-18T22:51:00.227Z,71.79
2022-10-18T22:53:27.684Z,72.32
2022-10-18T22:55:54.284Z,72.41
2022-10-18T22:58:20.989Z,72.83
2022-10-18T23:00:47.970Z,72.81
2022-10-18T23:03:16.602Z,72.92
2022-10-18T23:05:45.227Z,72.75
2022-10-18T23:08:14.124Z,73.20
2022-10-18T23:10:42.346Z,73.18
2022-10-18T23:13:10.613Z,73.33
2022-10-18T23:15:39.123Z,72.96
2022-10-18T23:18:06.180Z,73.18
2022-10-18T23:20:32.701Z,73.36
2022-10-18T23:22:59.189Z,73.23
2022-10-18T23:25:27.119Z,73.01
2022-10-18T23:27:53.817Z,73.31
2022-10-18T23:30:20.391Z,73.27
2022-10-18T23:32:46.876Z,73.41
2022-10-18T23:35:13.456Z,73.64
2022-10-18T23:37:39.969Z,73.68
2022-10-18T23:40:07.198Z,73.87
2022-10-18T23:42:33.769Z,73.84
2022-10-18T23:45:00.391Z,74.16
2022-10-18T23:47:26.914Z,73.87
2022-10-18T23:49:55.557Z,74.04
2022-10-18T23:52:22.150Z,74.17
2022-10-18T23:54:48.631Z,74.34
2022-10-18T23:57:15.082Z,74.52
2022-10-18T23:59:41.567Z,74.26
